Time;durP1;ratioP1;P1;durP2;ratioP2;P2;SDS_P1;SDS_P2;PMS_P1;PMS_P2;Temp;Humidity;BMP_temperature;BMP_pressure;BME280_temperature;BME280_humidity;BME280_pressure;Samples;Min_cycle;Max_cycle;Signal;HPM_P1;HPM_P2
2022/04/17 00:00:27;;;;;;;9.48;6.82;;;;;;;;;;5088481;28;20039;-81
2022/04/17 00:02:54;;;;;;;9.30;6.30;;;;;;;;;;5088760;28;20491;-81
2022/04/17 00:05:20;;;;;;;11.85;6.55;;;;;;;;;;5071769;28;20040;-80
2022/04/17 00:07:47;;;;;;;11.70;6.90;;;;;;;;;;5071654;28;20681;-80
2022/04/17 00:10:13;;;;;;;9.93;6.60;;;;;;;;;;5071569;28;20394;-81
2022/04/17 00:12:40;;;;;;;9.88;7.28;;;;;;;;;;5072242;28;20038;-81
2022/04/17 00:15:06;;;;;;;10.55;7.25;;;;;;;;;;5071425;28;20119;-81
2022/04/17 00:17:33;;;;;;;10.32;7.05;;;;;;;;;;5071588;28;20380;-81
2022/04/17 00:19:59;;;;;;;10.25;6.80;;;;;;;;;;5088942;28;20058;-80
2022/04/17 00:22:26;;;;;;;10.32;6.80;;;;;;;;;;5087990;28;20040;-80
2022/04/17 00:24:52;;;;;;;9.57;6.70;;;;;;;;;;5088404;28;20388;-81
2022/04/17 00:27:19;;;;;;;10.50;7.05;;;;;;;;;;5071350;28;20127;-81
2022/04/17 00:29:45;;;;;;;9.65;6.95;;;;;;;;;;5088040;28;20084;-81
2022/04/17 00:32:12;;;;;;;9.55;6.82;;;;;;;;;;5070843;28;20276;-81
2022/04/17 00:34:38;;;;;;;10.43;7.40;;;;;;;;;;5088055;28;20410;-81
2022/04/17 00:37:07;;;;;;;10.50;6.95;;;;;;;;;;5071288;28;20051;-81
2022/04/17 00:39:34;;;;;;;10.15;7.30;;;;;;;;;;5088081;28;20157;-81
2022/04/17 00:42:02;;;;;;;9.57;7.43;;;;;;;;;;5088646;28;20391;-81
2022/04/17 00:44:28;;;;;;;11.77;7.35;;;;;;;;;;5087893;28;20047;-80
2022/04/17 00:46:54;;;;;;;11.68;7.72;;;;;;;;;;5071010;28;20048;-81
2022/04/17 00:49:20;;;;;;;10.65;7.47;;;;;;;;;;5070916;28;20036;-81
2022/04/17 00:51:47;;;;;;;11.05;7.68;;;;;;;;;;5087983;28;20365;-80
2022/04/17 00:54:14;;;;;;;10.93;7.30;;;;;;;;;;5087839;28;20061;-81
2022/04/17 00:56:44;;;;;;;12.40;7.85;;;;;;;;;;5070930;28;20040;-80
2022/04/17 00:59:10;;;;;;;11.75;7.30;;;;;;;;;;5070695;28;20051;-81
2022/04/17 01:01:38;;;;;;;11.60;7.70;;;;;;;;;;5070997;28;20506;-81
2022/04/17 01:04:05;;;;;;;11.77;7.30;;;;;;;;;;5087634;28;20442;-80
2022/04/17 01:06:31;;;;;;;11.05;7.72;;;;;;;;;;5087626;28;20504;-80
2022/04/17 01:08:59;;;;;;;12.68;7.70;;;;;;;;;;5070955;28;20453;-80
2022/04/17 01:11:25;;;;;;;12.65;7.93;;;;;;;;;;5070827;28;20471;-80
2022/04/17 01:13:52;;;;;;;12.10;7.40;;;;;;;;;;5087296;28;20040;-80
2022/04/17 01:16:20;;;;;;;11.07;7.63;;;;;;;;;;5070440;28;20088;-80
2022/04/17 01:18:54;;;;;;;10.13;7.10;;;;;;;;;;5087249;28;20075;-80
2022/04/17 01:21:20;;;;;;;11.68;7.70;;;;;;;;;;5087546;28;20035;-80
2022/04/17 01:29:17;;;;;;;10.95;8.23;;;;;;;;;;5087102;28;20055;-80
2022/04/17 01:31:44;;;;;;;11.02;7.88;;;;;;;;;;5087753;28;20376;-80
2022/04/17 01:34:10;;;;;;;11.52;8.00;;;;;;;;;;5090558;28;20039;-81
2022/04/17 01:36:36;;;;;;;11.60;7.82;;;;;;;;;;5074175;28;20040;-80
2022/04/17 01:39:02;;;;;;;11.68;7.82;;;;;;;;;;5089053;28;20415;-80
2022/04/17 01:41:29;;;;;;;10.07;7.90;;;;;;;;;;5090864;28;20071;-80
2022/04/17 01:43:55;;;;;;;12.73;9.05;;;;;;;;;;5074925;28;20096;-80
2022/04/17 01:46:22;;;;;;;12.48;8.77;;;;;;;;;;5077779;28;20049;-80
2022/04/17 01:48:48;;;;;;;12.60;8.80;;;;;;;;;;5094733;28;20044;-80
2022/04/17 01:51:14;;;;;;;12.60;8.60;;;;;;;;;;5077723;28;20043;-80
2022/04/17 01:53:40;;;;;;;13.77;9.20;;;;;;;;;;5094794;28;20595;-80
2022/04/17 01:56:06;;;;;;;12.25;9.32;;;;;;;;;;5076591;28;20035;-80
2022/04/17 01:58:33;;;;;;;12.88;8.77;;;;;;;;;;5094508;28;20038;-80
2022/04/17 02:00:59;;;;;;;12.45;8.93;;;;;;;;;;5094316;28;20040;-80
2022/04/17 02:03:25;;;;;;;11.82;8.50;;;;;;;;;;5077540;28;20538;-80
2022/04/17 02:05:51;;;;;;;12.13;8.85;;;;;;;;;;5094271;28;20061;-80
2022/04/17 02:08:18;;;;;;;13.82;9.18;;;;;;;;;;5094220;28;20055;-80
2022/04/17 02:10:44;;;;;;;13.48;8.80;;;;;;;;;;5094175;28;20042;-81
2022/04/17 02:13:10;;;;;;;11.63;8.60;;;;;;;;;;5077086;28;20039;-80
2022/04/17 02:15:37;;;;;;;13.43;8.52;;;;;;;;;;5094578;28;20529;-80
2022/04/17 02:18:03;;;;;;;12.57;9.88;;;;;;;;;;5094108;28;20054;-80
2022/04/17 02:20:29;;;;;;;13.45;9.75;;;;;;;;;;5093692;28;20247;-80
2022/04/17 02:22:55;;;;;;;12.77;9.50;;;;;;;;;;5093934;28;20044;-80
2022/04/17 02:25:21;;;;;;;11.95;9.38;;;;;;;;;;5077514;28;20530;-80
2022/04/17 02:27:48;;;;;;;15.32;9.80;;;;;;;;;;5094226;28;20176;-80
2022/04/17 02:30:14;;;;;;;12.07;8.70;;;;;;;;;;5093888;28;20040;-80
2022/04/17 02:32:40;;;;;;;13.68;9.40;;;;;;;;;;5076575;28;20058;-81
2022/04/17 02:35:07;;;;;;;13.65;9.55;;;;;;;;;;5093568;28;20047;-80
2022/04/17 02:37:37;;;;;;;12.55;9.32;;;;;;;;;;5076675;28;20040;-80
2022/04/17 02:40:03;;;;;;;13.95;10.07;;;;;;;;;;5093913;28;20066;-80
2022/04/17 02:42:32;;;;;;;12.93;9.43;;;;;;;;;;5093723;28;20039;-80
2022/04/17 02:44:58;;;;;;;14.27;9.52;;;;;;;;;;5093533;28;20481;-80
2022/04/17 02:47:42;;;;;;;14.02;10.88;;;;;;;;;;5076576;28;20559;-80
2022/04/17 02:50:12;;;;;;;14.07;10.73;;;;;;;;;;5093320;28;20039;-80
2022/04/17 02:52:39;;;;;;;15.07;10.80;;;;;;;;;;5077505;28;20395;-80
2022/04/17 02:55:06;;;;;;;13.52;9.60;;;;;;;;;;5093368;28;20483;-80
2022/04/17 02:57:32;;;;;;;13.27;10.05;;;;;;;;;;5076539;28;20044;-80
2022/04/17 02:59:59;;;;;;;14.05;10.75;;;;;;;;;;5093110;28;20080;-80
2022/04/17 03:07:58;;;;;;;13.18;10.25;;;;;;;;;;5092993;28;20051;-80
2022/04/17 03:10:25;;;;;;;14.75;10.52;;;;;;;;;;5076028;28;20043;-80
2022/04/17 03:12:51;;;;;;;13.73;10.48;;;;;;;;;;5076147;28;20118;-80
2022/04/17 03:15:17;;;;;;;13.60;10.40;;;;;;;;;;5092925;28;20046;-80
2022/04/17 03:17:44;;;;;;;13.55;10.73;;;;;;;;;;5076129;28;20529;-80
2022/04/17 03:20:10;;;;;;;13.45;9.80;;;;;;;;;;5076307;28;20102;-80
2022/04/17 03:22:41;;;;;;;15.20;11.05;;;;;;;;;;5076083;28;20487;-80
2022/04/17 03:25:07;;;;;;;13.00;10.43;;;;;;;;;;5076031;28;20348;-81
2022/04/17 03:27:33;;;;;;;15.30;10.73;;;;;;;;;;5092718;28;20043;-80
2022/04/17 03:30:00;;;;;;;14.65;10.63;;;;;;;;;;5075760;28;20040;-80
2022/04/17 03:32:26;;;;;;;14.30;10.70;;;;;;;;;;5092278;28;20105;-80
2022/04/17 03:34:52;;;;;;;16.65;10.80;;;;;;;;;;5075598;28;20040;-80
2022/04/17 03:37:18;;;;;;;16.23;11.13;;;;;;;;;;5092421;28;20044;-80
2022/04/17 03:39:51;;;;;;;14.48;11.00;;;;;;;;;;5075821;28;20122;-80
2022/04/17 03:42:18;;;;;;;16.42;11.57;;;;;;;;;;5092796;28;20394;-81
2022/04/17 03:44:46;;;;;;;16.40;11.18;;;;;;;;;;5092426;28;20043;-80
2022/04/17 03:47:13;;;;;;;16.27;11.55;;;;;;;;;;5091998;28;20138;-80
2022/04/17 03:49:39;;;;;;;15.25;11.75;;;;;;;;;;5091936;28;20028;-80
2022/04/17 03:52:05;;;;;;;15.60;12.48;;;;;;;;;;5092105;28;20036;-80
2022/04/17 03:54:31;;;;;;;15.48;11.15;;;;;;;;;;5090470;28;20092;-81
2022/04/17 03:56:58;;;;;;;14.98;11.82;;;;;;;;;;5092566;28;20410;-80
2022/04/17 03:59:24;;;;;;;15.02;10.98;;;;;;;;;;5092416;28;20578;-80
2022/04/17 04:01:50;;;;;;;15.43;11.57;;;;;;;;;;5075569;28;20036;-80
2022/04/17 04:04:16;;;;;;;13.68;11.32;;;;;;;;;;5092138;28;20631;-80
2022/04/17 04:06:43;;;;;;;15.48;12.60;;;;;;;;;;5091168;28;20067;-80
2022/04/17 04:09:09;;;;;;;16.50;12.90;;;;;;;;;;5078009;28;20490;-81
2022/04/17 04:11:35;;;;;;;14.75;11.48;;;;;;;;;;5091858;28;20043;-81
2022/04/17 04:14:03;;;;;;;14.90;11.45;;;;;;;;;;5074946;28;20085;-80
2022/04/17 04:16:29;;;;;;;15.43;12.65;;;;;;;;;;5075073;28;20490;-80
2022/04/17 04:18:56;;;;;;;14.95;13.00;;;;;;;;;;5091975;28;20040;-80
2022/04/17 04:21:22;;;;;;;15.45;12.73;;;;;;;;;;5074733;28;20031;-80
2022/04/17 04:23:48;;;;;;;15.45;12.60;;;;;;;;;;5074894;28;20044;-80
2022/04/17 04:26:14;;;;;;;16.38;12.70;;;;;;;;;;5074690;28;20044;-80
2022/04/17 04:28:40;;;;;;;15.38;12.65;;;;;;;;;;5091508;28;20063;-80
2022/04/17 04:31:09;;;;;;;17.50;12.65;;;;;;;;;;5074534;28;20075;-80
2022/04/17 04:33:36;;;;;;;17.42;13.80;;;;;;;;;;5074310;28;20051;-79
2022/04/17 04:36:04;;;;;;;16.42;12.60;;;;;;;;;;5091186;28;20043;-80
2022/04/17 04:38:31;;;;;;;16.27;12.73;;;;;;;;;;5091653;28;20046;-78
2022/04/17 04:40:57;;;;;;;17.67;13.02;;;;;;;;;;5091209;28;20036;-79
2022/04/17 04:43:23;;;;;;;15.52;11.65;;;;;;;;;;5074675;28;20035;-78
2022/04/17 04:46:08;;;;;;;17.10;13.13;;;;;;;;;;5091145;28;20040;-80
2022/04/17 04:51:22;;;;;;;15.68;12.63;;;;;;;;;;5091411;28;20035;-80
2022/04/17 04:53:49;;;;;;;15.98;12.32;;;;;;;;;;5091145;28;20110;-80
2022/04/17 04:56:18;;;;;;;18.25;12.68;;;;;;;;;;5091206;28;20035;-80
2022/04/17 04:58:45;;;;;;;17.05;12.90;;;;;;;;;;5090805;28;20044;-80
2022/04/17 05:01:11;;;;;;;16.23;13.30;;;;;;;;;;5090727;28;20040;-80
2022/04/17 05:03:37;;;;;;;16.05;13.07;;;;;;;;;;5074006;28;20065;-80
2022/04/17 05:06:03;;;;;;;15.60;12.82;;;;;;;;;;5091062;28;20038;-80
2022/04/17 05:08:30;;;;;;;17.88;14.13;;;;;;;;;;5091382;28;20398;-80
2022/04/17 05:10:57;;;;;;;16.77;13.15;;;;;;;;;;5073855;28;20035;-80
2022/04/17 05:13:32;;;;;;;18.27;13.75;;;;;;;;;;5090943;27;20035;-79
2022/04/17 05:15:58;;;;;;;19.50;14.43;;;;;;;;;;5072552;28;20552;-79
2022/04/17 05:18:24;;;;;;;17.40;13.15;;;;;;;;;;5088866;28;20042;-79
2022/04/17 05:20:51;;;;;;;18.67;13.68;;;;;;;;;;5115109;28;20394;-79
2022/04/17 05:23:19;;;;;;;18.65;14.48;;;;;;;;;;5073240;28;20043;-80
2022/04/17 05:25:47;;;;;;;16.05;12.45;;;;;;;;;;5074216;28;20039;-79
2022/04/17 05:28:14;;;;;;;19.85;15.27;;;;;;;;;;5090563;28;20516;-80
2022/04/17 05:30:40;;;;;;;17.83;14.38;;;;;;;;;;5073614;28;20074;-80
2022/04/17 05:33:06;;;;;;;18.33;14.35;;;;;;;;;;5070266;28;20463;-80
2022/04/17 05:35:33;;;;;;;18.05;14.63;;;;;;;;;;5085190;28;20124;-80
2022/04/17 05:37:59;;;;;;;16.83;14.43;;;;;;;;;;5084603;28;20036;-79
2022/04/17 05:40:25;;;;;;;16.42;14.63;;;;;;;;;;5087267;28;20047;-79
2022/04/17 05:42:51;;;;;;;19.38;15.60;;;;;;;;;;5087623;28;20048;-80
2022/04/17 05:45:18;;;;;;;18.02;15.10;;;;;;;;;;5087274;28;20109;-80
2022/04/17 05:47:44;;;;;;;18.08;14.80;;;;;;;;;;5087465;28;20044;-79
2022/04/17 05:50:11;;;;;;;19.10;15.32;;;;;;;;;;5086932;28;20036;-80
2022/04/17 05:52:37;;;;;;;17.58;14.73;;;;;;;;;;5087653;28;20040;-80
2022/04/17 05:55:04;;;;;;;20.10;16.27;;;;;;;;;;5070237;28;20039;-81
2022/04/17 05:57:30;;;;;;;18.58;14.88;;;;;;;;;;5087543;28;20409;-78
2022/04/17 05:59:56;;;;;;;17.73;15.82;;;;;;;;;;5087063;28;20068;-80
2022/04/17 06:02:22;;;;;;;20.08;15.18;;;;;;;;;;5086540;28;20086;-80
2022/04/17 06:04:49;;;;;;;21.45;17.35;;;;;;;;;;5068702;28;20653;-79
2022/04/17 06:07:24;;;;;;;18.13;15.70;;;;;;;;;;5088614;28;20445;-80
2022/04/17 06:09:50;;;;;;;20.85;17.58;;;;;;;;;;5072724;28;20032;-80
2022/04/17 06:12:16;;;;;;;20.17;16.55;;;;;;;;;;5086026;28;20036;-80
2022/04/17 06:14:43;;;;;;;18.50;16.50;;;;;;;;;;5085746;28;20124;-80
2022/04/17 06:17:10;;;;;;;20.48;16.83;;;;;;;;;;5085828;28;20047;-81
2022/04/17 06:19:37;;;;;;;19.88;16.40;;;;;;;;;;5094377;28;20040;-80
2022/04/17 06:22:03;;;;;;;19.33;15.75;;;;;;;;;;5085618;28;20200;-80
2022/04/17 06:24:30;;;;;;;19.92;16.85;;;;;;;;;;5085671;28;20036;-80
2022/04/17 06:26:57;;;;;;;20.75;17.08;;;;;;;;;;5068486;28;20040;-80
2022/04/17 06:29:23;;;;;;;20.60;17.20;;;;;;;;;;5085675;28;20445;-80
2022/04/17 06:31:49;;;;;;;19.45;16.48;;;;;;;;;;5091846;27;20505;-80
2022/04/17 06:34:15;;;;;;;19.80;16.23;;;;;;;;;;5098663;27;20051;-80
2022/04/17 06:36:41;;;;;;;19.95;16.42;;;;;;;;;;5097439;27;20122;-79
2022/04/17 06:39:08;;;;;;;20.95;16.98;;;;;;;;;;5100485;27;20031;-80
2022/04/17 06:41:35;;;;;;;20.33;16.30;;;;;;;;;;5094925;28;20039;-81
2022/04/17 06:44:01;;;;;;;19.52;16.63;;;;;;;;;;5083790;28;20072;-80
2022/04/17 06:46:27;;;;;;;20.23;16.42;;;;;;;;;;5103090;28;20051;-81
2022/04/17 06:48:54;;;;;;;18.73;15.93;;;;;;;;;;5091882;28;20063;-80
2022/04/17 06:51:23;;;;;;;19.70;16.45;;;;;;;;;;5094282;28;20504;-80
2022/04/17 06:53:50;;;;;;;19.10;16.90;;;;;;;;;;5092559;28;20518;-81
2022/04/17 06:56:18;;;;;;;17.63;14.85;;;;;;;;;;5105876;28;20043;-81
2022/04/17 06:58:48;;;;;;;18.67;16.67;;;;;;;;;;5076445;28;20067;-81
2022/04/17 07:01:14;;;;;;;18.95;16.00;;;;;;;;;;5093579;28;20035;-81
2022/04/17 07:03:50;;;;;;;18.15;16.25;;;;;;;;;;5095260;28;20075;-81
2022/04/17 07:06:16;;;;;;;21.02;16.10;;;;;;;;;;5096123;28;20118;-81
2022/04/17 07:08:42;;;;;;;20.90;16.88;;;;;;;;;;5095491;28;20031;-80
2022/04/17 07:11:08;;;;;;;18.13;15.48;;;;;;;;;;5079123;28;20057;-81
2022/04/17 07:13:35;;;;;;;18.23;15.15;;;;;;;;;;5095837;28;20054;-81
2022/04/17 07:16:01;;;;;;;19.25;16.50;;;;;;;;;;5078770;28;20522;-81
2022/04/17 07:18:27;;;;;;;21.25;16.10;;;;;;;;;;5095508;28;20085;-81
2022/04/17 07:20:53;;;;;;;18.95;14.55;;;;;;;;;;5085679;27;20075;-80
2022/04/17 07:23:20;;;;;;;18.88;15.40;;;;;;;;;;5099019;28;20296;-81
2022/04/17 07:25:46;;;;;;;17.25;14.10;;;;;;;;;;5102646;28;20032;-81
2022/04/17 07:28:12;;;;;;;18.25;14.65;;;;;;;;;;5086885;28;20051;-80
2022/04/17 07:30:38;;;;;;;18.95;14.55;;;;;;;;;;5074491;28;20510;-81
2022/04/17 07:33:05;;;;;;;16.88;13.27;;;;;;;;;;5072970;28;20052;-81
2022/04/17 07:35:32;;;;;;;16.52;13.25;;;;;;;;;;5075021;28;20114;-80
2022/04/17 07:37:59;;;;;;;16.52;13.45;;;;;;;;;;5102407;27;20040;-81
2022/04/17 07:40:27;;;;;;;16.10;12.90;;;;;;;;;;5091449;28;20058;-82
2022/04/17 07:42:54;;;;;;;18.02;13.57;;;;;;;;;;5095810;28;20110;-81
2022/04/17 07:45:21;;;;;;;14.60;12.23;;;;;;;;;;5080190;27;20042;-81
2022/04/17 07:47:47;;;;;;;15.07;11.82;;;;;;;;;;5080392;28;20332;-82
2022/04/17 07:50:15;;;;;;;15.18;11.63;;;;;;;;;;5088121;27;20066;-82
2022/04/17 07:52:42;;;;;;;14.63;11.68;;;;;;;;;;5080009;27;20031;-82
2022/04/17 07:55:09;;;;;;;13.63;11.73;;;;;;;;;;5074011;28;20490;-82
2022/04/17 08:00:25;;;;;;;15.57;11.95;;;;;;;;;;5090565;28;20087;-82
2022/04/17 08:02:55;;;;;;;15.45;11.00;;;;;;;;;;5098501;27;20039;-82
2022/04/17 08:05:22;;;;;;;14.98;11.73;;;;;;;;;;5077757;27;20093;-82
2022/04/17 08:07:58;;;;;;;15.93;11.88;;;;;;;;;;5075004;28;20486;-82
2022/04/17 08:10:24;;;;;;;15.27;11.32;;;;;;;;;;5074227;28;20032;-82
2022/04/17 08:12:51;;;;;;;14.15;11.07;;;;;;;;;;5091555;28;20032;-80
2022/04/17 08:15:17;;;;;;;15.32;11.50;;;;;;;;;;5091310;28;20044;-82
2022/04/17 08:17:49;;;;;;;12.82;10.98;;;;;;;;;;5090719;28;20160;-82
2022/04/17 08:20:16;;;;;;;15.50;11.07;;;;;;;;;;5092116;28;20042;-83
2022/04/17 08:22:42;;;;;;;13.43;10.88;;;;;;;;;;5087874;28;20071;-82
2022/04/17 08:25:08;;;;;;;16.63;11.27;;;;;;;;;;5073930;28;20113;-82
2022/04/17 08:27:34;;;;;;;14.57;10.77;;;;;;;;;;5073644;28;20127;-81
2022/04/17 08:30:01;;;;;;;13.52;10.07;;;;;;;;;;5074026;28;20036;-82
2022/04/17 08:32:28;;;;;;;12.48;10.10;;;;;;;;;;5073876;28;20058;-82
2022/04/17 08:34:54;;;;;;;14.65;10.63;;;;;;;;;;5074460;28;20054;-83
2022/04/17 08:37:20;;;;;;;14.00;10.05;;;;;;;;;;5090611;28;20069;-82
2022/04/17 08:39:47;;;;;;;12.40;9.40;;;;;;;;;;5091761;28;20055;-82
2022/04/17 08:42:14;;;;;;;11.75;9.18;;;;;;;;;;5074699;28;20043;-83
2022/04/17 08:44:40;;;;;;;12.95;9.35;;;;;;;;;;5091798;28;20052;-81
2022/04/17 08:47:07;;;;;;;13.95;9.02;;;;;;;;;;5075504;28;20071;-81
2022/04/17 08:49:34;;;;;;;13.48;10.07;;;;;;;;;;5074410;28;20663;-82
2022/04/17 08:52:00;;;;;;;11.77;9.23;;;;;;;;;;5091954;28;20040;-82
2022/04/17 08:54:27;;;;;;;11.63;9.00;;;;;;;;;;5074128;28;20035;-83
2022/04/17 08:56:53;;;;;;;13.38;9.43;;;;;;;;;;5078991;28;20071;-82
2022/04/17 08:59:20;;;;;;;12.98;9.13;;;;;;;;;;5074981;28;20039;-82
2022/04/17 09:01:46;;;;;;;14.40;10.00;;;;;;;;;;5093496;28;20077;-82
2022/04/17 09:04:12;;;;;;;12.18;9.18;;;;;;;;;;5093294;28;20093;-83
2022/04/17 09:06:39;;;;;;;12.70;9.48;;;;;;;;;;5073939;28;20044;-82
2022/04/17 09:09:06;;;;;;;13.15;8.88;;;;;;;;;;5068161;28;20543;-82
2022/04/17 09:11:34;;;;;;;13.93;9.23;;;;;;;;;;5082252;28;20064;-82
2022/04/17 09:14:05;;;;;;;12.30;9.43;;;;;;;;;;5089649;28;20035;-83
2022/04/17 09:16:34;;;;;;;10.88;8.13;;;;;;;;;;5073712;28;20051;-82
2022/04/17 09:19:11;;;;;;;13.15;8.95;;;;;;;;;;5073704;28;20047;-82
2022/04/17 09:21:37;;;;;;;10.85;8.40;;;;;;;;;;5073460;28;20132;-81
2022/04/17 09:24:13;;;;;;;11.35;8.70;;;;;;;;;;5090815;28;20088;-83
2022/04/17 09:26:46;;;;;;;11.88;8.35;;;;;;;;;;5090810;28;20169;-83
2022/04/17 09:29:23;;;;;;;12.63;7.53;;;;;;;;;;5090794;28;20118;-81
2022/04/17 09:32:06;;;;;;;10.85;7.05;;;;;;;;;;5057410;28;20440;-83
2022/04/17 09:34:43;;;;;;;10.15;6.85;;;;;;;;;;5091012;28;20521;-83
2022/04/17 09:37:14;;;;;;;11.07;6.80;;;;;;;;;;5074044;28;20047;-83
2022/04/17 09:39:40;;;;;;;9.23;6.82;;;;;;;;;;5073945;28;20046;-83
2022/04/17 09:42:07;;;;;;;10.73;7.55;;;;;;;;;;5125150;28;20100;-83
2022/04/17 09:44:37;;;;;;;11.02;7.22;;;;;;;;;;5090832;28;20040;-83
2022/04/17 09:47:09;;;;;;;10.02;7.07;;;;;;;;;;5073583;28;20046;-82
2022/04/17 09:49:55;;;;;;;9.30;6.65;;;;;;;;;;5058711;28;20520;-83
2022/04/17 09:52:22;;;;;;;10.75;7.00;;;;;;;;;;5074156;28;20088;-83
2022/04/17 09:54:49;;;;;;;9.68;6.95;;;;;;;;;;5090165;28;20044;-83
2022/04/17 09:57:19;;;;;;;10.25;7.50;;;;;;;;;;5074028;28;20088;-83
2022/04/17 09:59:45;;;;;;;9.00;6.50;;;;;;;;;;5073813;28;20044;-85
2022/04/17 10:02:12;;;;;;;8.93;6.32;;;;;;;;;;5073861;28;20406;-83
2022/04/17 10:04:39;;;;;;;9.77;6.47;;;;;;;;;;5073721;28;20042;-84
2022/04/17 10:07:06;;;;;;;10.00;6.78;;;;;;;;;;5077114;28;20176;-83
2022/04/17 10:09:32;;;;;;;8.70;6.13;;;;;;;;;;5094259;28;20044;-83
2022/04/17 10:12:02;;;;;;;10.18;7.18;;;;;;;;;;5076450;28;20036;-83
2022/04/17 10:14:37;;;;;;;10.20;6.22;;;;;;;;;;5094523;28;20048;-84
2022/04/17 10:17:07;;;;;;;8.95;6.28;;;;;;;;;;5061293;28;20040;-82
2022/04/17 10:19:35;;;;;;;9.88;6.80;;;;;;;;;;5077397;28;20380;-84
2022/04/17 10:22:03;;;;;;;9.48;6.57;;;;;;;;;;5077453;28;20086;-84
2022/04/17 10:24:29;;;;;;;9.55;6.75;;;;;;;;;;5124264;27;20039;-84
2022/04/17 10:26:55;;;;;;;9.48;6.60;;;;;;;;;;5077225;28;20067;-84
2022/04/17 10:29:23;;;;;;;9.48;6.43;;;;;;;;;;5076886;28;20035;-82
2022/04/17 10:32:08;;;;;;;10.85;6.85;;;;;;;;;;5077121;28;20031;-85
2022/04/17 10:34:34;;;;;;;8.85;6.35;;;;;;;;;;5053740;28;20045;-83
2022/04/17 10:37:19;;;;;;;10.25;6.68;;;;;;;;;;5053540;28;20358;-83
2022/04/17 10:39:45;;;;;;;;;;;;;;;;;;5071027;28;20476;-83
2022/04/17 10:42:12;;;;;;;8.50;5.90;;;;;;;;;;5070246;28;20334;-85
2022/04/17 10:44:41;;;;;;;9.57;5.95;;;;;;;;;;5054113;28;20040;-82
2022/04/17 10:47:17;;;;;;;8.43;5.50;;;;;;;;;;5053441;28;20044;-84
2022/04/17 10:49:56;;;;;;;7.72;5.40;;;;;;;;;;5053648;28;20036;-84
2022/04/17 10:52:30;;;;;;;9.35;5.95;;;;;;;;;;5053404;28;20127;-84
2022/04/17 10:54:56;;;;;;;9.55;5.97;;;;;;;;;;5070876;28;20067;-84
2022/04/17 10:57:24;;;;;;;9.75;5.75;;;;;;;;;;5053533;28;20042;-84
2022/04/17 10:59:50;;;;;;;8.25;5.30;;;;;;;;;;5069857;28;20404;-84
2022/04/17 11:02:19;;;;;;;8.50;5.70;;;;;;;;;;5069903;28;20495;-84
2022/04/17 11:04:55;;;;;;;9.82;5.63;;;;;;;;;;5053588;28;20515;-85
2022/04/17 11:07:29;;;;;;;8.35;5.95;;;;;;;;;;5053157;28;20461;-85
2022/04/17 11:10:06;;;;;;;8.05;5.55;;;;;;;;;;5053465;28;20388;-86
2022/04/17 11:12:45;;;;;;;9.10;5.38;;;;;;;;;;5053360;28;20460;-82
2022/04/17 11:15:11;;;;;;;9.75;5.60;;;;;;;;;;5052932;28;20498;-83
2022/04/17 11:17:39;;;;;;;7.32;5.25;;;;;;;;;;5053177;28;20135;-83
2022/04/17 11:20:07;;;;;;;8.15;5.60;;;;;;;;;;5053260;28;20062;-84
2022/04/17 11:22:34;;;;;;;9.18;5.55;;;;;;;;;;5053586;28;20044;-84
2022/04/17 11:25:02;;;;;;;9.60;5.82;;;;;;;;;;5052989;28;20036;-84
2022/04/17 11:27:41;;;;;;;8.38;5.38;;;;;;;;;;5052914;28;20044;-85
2022/04/17 11:30:17;;;;;;;9.40;6.18;;;;;;;;;;5052939;28;20503;-84
2022/04/17 11:32:43;;;;;;;9.43;5.97;;;;;;;;;;5058177;28;20428;-83
2022/04/17 11:35:10;;;;;;;8.88;5.88;;;;;;;;;;5072658;28;20044;-84
2022/04/17 11:37:37;;;;;;;10.02;5.97;;;;;;;;;;5070287;28;20040;-84
2022/04/17 11:40:09;;;;;;;8.40;5.35;;;;;;;;;;5072245;28;20042;-83
2022/04/17 11:42:41;;;;;;;8.35;5.53;;;;;;;;;;5089301;28;20047;-84
2022/04/17 11:45:07;;;;;;;7.97;5.75;;;;;;;;;;5072779;28;20506;-84
2022/04/17 11:47:38;;;;;;;8.40;5.90;;;;;;;;;;5072218;28;20517;-84
2022/04/17 11:50:06;;;;;;;7.90;5.50;;;;;;;;;;5072237;28;20067;-85
2022/04/17 11:52:32;;;;;;;9.05;5.70;;;;;;;;;;5072797;28;20562;-83
2022/04/17 11:55:00;;;;;;;8.75;6.22;;;;;;;;;;5072298;28;20035;-85
2022/04/17 11:57:26;;;;;;;8.52;5.28;;;;;;;;;;5072549;28;20047;-83
2022/04/17 11:59:56;;;;;;;8.38;5.95;;;;;;;;;;5072382;28;20051;-86
2022/04/17 12:02:23;;;;;;;9.10;5.75;;;;;;;;;;5073211;28;20063;-84
2022/04/17 12:04:51;;;;;;;9.25;5.82;;;;;;;;;;5072198;28;20040;-83
2022/04/17 12:07:21;;;;;;;9.48;5.70;;;;;;;;;;5072340;28;20075;-84
2022/04/17 12:09:48;;;;;;;9.38;6.80;;;;;;;;;;5072067;28;20036;-82
2022/04/17 12:12:16;;;;;;;9.15;6.63;;;;;;;;;;5079681;28;20043;-83
2022/04/17 12:14:43;;;;;;;9.65;6.40;;;;;;;;;;5068903;28;20414;-83
2022/04/17 12:17:09;;;;;;;9.70;6.20;;;;;;;;;;5071741;28;20040;-84
2022/04/17 12:19:35;;;;;;;8.90;6.57;;;;;;;;;;5088471;28;20465;-83
2022/04/17 12:22:14;;;;;;;8.38;6.35;;;;;;;;;;5072108;28;20583;-82
2022/04/17 12:24:44;;;;;;;9.40;6.50;;;;;;;;;;5071998;28;20050;-82
2022/04/17 12:27:10;;;;;;;10.38;6.93;;;;;;;;;;5070946;28;20072;-83
2022/04/17 12:29:41;;;;;;;10.30;6.70;;;;;;;;;;5089263;28;20068;-83
2022/04/17 12:32:16;;;;;;;9.75;6.80;;;;;;;;;;5073145;28;20237;-84
2022/04/17 12:34:46;;;;;;;9.38;6.70;;;;;;;;;;5091974;28;20562;-83
2022/04/17 12:37:22;;;;;;;9.93;6.80;;;;;;;;;;5091491;28;20491;-84
2022/04/17 12:39:48;;;;;;;8.73;6.13;;;;;;;;;;5075187;28;20189;-84
2022/04/17 12:42:18;;;;;;;9.27;6.32;;;;;;;;;;5075471;28;20440;-84
2022/04/17 12:44:47;;;;;;;9.88;6.65;;;;;;;;;;5075371;28;20043;-84
2022/04/17 12:47:17;;;;;;;9.45;6.70;;;;;;;;;;5074344;28;20040;-83
2022/04/17 12:49:44;;;;;;;10.02;6.32;;;;;;;;;;5091869;28;20118;-84
2022/04/17 12:52:20;;;;;;;8.13;5.72;;;;;;;;;;5091626;28;20042;-83
2022/04/17 12:54:47;;;;;;;10.15;6.00;;;;;;;;;;5074774;28;20478;-85
2022/04/17 12:57:13;;;;;;;10.05;6.43;;;;;;;;;;5074479;28;20563;-86
2022/04/17 12:59:39;;;;;;;8.48;6.32;;;;;;;;;;5090058;28;20067;-84
2022/04/17 13:02:19;;;;;;;8.88;5.75;;;;;;;;;;5074702;28;20430;-85
2022/04/17 13:04:46;;;;;;;8.07;5.57;;;;;;;;;;5071967;28;20032;-84
2022/04/17 13:07:14;;;;;;;8.50;5.97;;;;;;;;;;5090249;28;20398;-85
2022/04/17 13:09:53;;;;;;;8.05;5.45;;;;;;;;;;5079252;28;20500;-83
2022/04/17 13:12:40;;;;;;;7.90;5.40;;;;;;;;;;5094243;28;20049;-86
2022/04/17 13:15:07;;;;;;;8.57;5.88;;;;;;;;;;5103055;28;20046;-85
2022/04/17 13:18:03;;;;;;;8.23;5.97;;;;;;;;;;5086872;27;20367;-84
2022/04/17 13:20:33;;;;;;;10.10;6.40;;;;;;;;;;5082876;27;20047;-84
2022/04/17 13:22:59;;;;;;;8.93;5.85;;;;;;;;;;5098793;28;20101;-85
2022/04/17 13:25:25;;;;;;;8.35;5.72;;;;;;;;;;5084083;27;20529;-83
2022/04/17 13:27:52;;;;;;;8.40;5.53;;;;;;;;;;5071773;28;21618;-85
2022/04/17 13:30:19;;;;;;;8.57;6.10;;;;;;;;;;5094896;28;20036;-84
2022/04/17 13:32:46;;;;;;;9.25;6.40;;;;;;;;;;5092679;28;20055;-84
2022/04/17 13:35:12;;;;;;;7.88;5.95;;;;;;;;;;5080801;28;20364;-84
2022/04/17 13:40:24;;;;;;;8.70;5.55;;;;;;;;;;5123458;27;20066;-83
2022/04/17 13:42:50;;;;;;;9.48;6.10;;;;;;;;;;5080948;28;20085;-82
2022/04/17 13:45:16;;;;;;;8.38;5.88;;;;;;;;;;5093599;28;20053;-84
2022/04/17 13:47:43;;;;;;;7.78;5.65;;;;;;;;;;5080331;28;20044;-84
2022/04/17 13:50:11;;;;;;;8.15;5.80;;;;;;;;;;5077804;28;20039;-83
2022/04/17 13:52:37;;;;;;;9.25;6.45;;;;;;;;;;5080666;28;20134;-82
2022/04/17 13:55:04;;;;;;;8.65;6.00;;;;;;;;;;5079666;28;20032;-85
2022/04/17 13:57:31;;;;;;;8.73;6.07;;;;;;;;;;5082072;28;20083;-85
2022/04/17 13:59:57;;;;;;;7.53;5.53;;;;;;;;;;5082622;28;20054;-86
2022/04/17 14:02:23;;;;;;;7.47;5.90;;;;;;;;;;5082229;28;20653;-84
2022/04/17 14:04:49;;;;;;;9.68;6.55;;;;;;;;;;5083674;28;20040;-87
2022/04/17 14:07:15;;;;;;;8.25;5.53;;;;;;;;;;5078314;27;20498;-84
2022/04/17 14:09:43;;;;;;;8.10;6.05;;;;;;;;;;5078555;28;20164;-84
2022/04/17 14:12:11;;;;;;;8.30;6.18;;;;;;;;;;5081103;28;20042;-84
2022/04/17 14:14:41;;;;;;;8.90;6.28;;;;;;;;;;5078987;28;20044;-84
2022/04/17 14:17:08;;;;;;;7.60;5.90;;;;;;;;;;5078306;28;20035;-84
2022/04/17 14:19:34;;;;;;;8.75;5.80;;;;;;;;;;5080252;28;20303;-84
2022/04/17 14:22:00;;;;;;;8.38;6.10;;;;;;;;;;5078029;28;20039;-85
2022/04/17 14:24:26;;;;;;;8.20;6.03;;;;;;;;;;5081503;28;20035;-84
2022/04/17 14:26:53;;;;;;;8.43;6.10;;;;;;;;;;5082511;28;20047;-85
2022/04/17 14:29:19;;;;;;;8.27;6.10;;;;;;;;;;5077522;28;20043;-84
2022/04/17 14:31:45;;;;;;;8.93;6.43;;;;;;;;;;5073337;27;20039;-85
2022/04/17 14:34:11;;;;;;;9.02;5.60;;;;;;;;;;5090976;28;20506;-86
2022/04/17 14:36:38;;;;;;;9.40;6.65;;;;;;;;;;5093793;28;20032;-84
2022/04/17 14:39:05;;;;;;;9.00;5.80;;;;;;;;;;5076695;28;20111;-84
2022/04/17 14:41:31;;;;;;;8.27;5.40;;;;;;;;;;5103049;27;20081;-83
2022/04/17 14:43:58;;;;;;;7.72;5.22;;;;;;;;;;5073544;28;20039;-84
2022/04/17 14:46:24;;;;;;;7.57;5.10;;;;;;;;;;5073401;28;20035;-84
2022/04/17 14:48:56;;;;;;;7.88;4.80;;;;;;;;;;5078322;28;20035;-84
2022/04/17 14:51:22;;;;;;;6.75;4.68;;;;;;;;;;5068548;28;20543;-83